סלוניקי, יוון

08:21 PM EET , נובמבר 23, 2014 (GMT +0200)
Thessaloniki Airport | Change Station
CLOSE
Current Station
Airport
Location: Thessaloniki Airport,
Elevation: 13 ft
Nearby Weather Stations

Elev 13 ft 40.52 °N, 22.97 °E | Updated 21 minutes ago

Scattered Clouds
עננים פזורים
43 ° F
Feels Like 43 ° F
צפ
5
רוח משתנה רוח from מזרח
Gusts מייל/שעה

היום
High -- | Low -- ° F
--% Chance of Precip.
אתמול
High -- | Low -- ° F
Precip. -- אינץ
7:23 AM 5:05 PM
מולד הירח, 2% visible
לחץ 30.32 אינץ
ראות 6.0 מיילים
עננים
טמפ עיבוי 38 ° F
לחות 75%
גשם אינץ
עומק השלג Not available.
UV Not available.
Pollen Not available.
איכות האוויר Not available.
Flu Activity Not available.
AAXX 23184 16622 12560 11004 10062 20032 30266 40266 52008 60002 81100 333 10137 90730 91106 555 10000 40022 30000 10090 20104 30112 40120 50166

More Conditions Fewer Conditions

לחץ 30.32 אינץ
ראות 6.0 מיילים
עננים
טמפ עיבוי 38 ° F
לחות 75%
גשם אינץ
עומק השלג Not available.
UV Not available.
Pollen Not available.
איכות האוויר Not available.
Flu Activity Not available.
AAXX 23184 16622 12560 11004 10062 20032 30266 40266 52008 60002 81100 333 10137 90730 91106 555 10000 40022 30000 10090 20104 30112 40120 50166

More Conditions Fewer Conditions

10-Day Weather Forecast

Almanac

אסטרונומיה

Nov. 23, 2014 Rise Set
Actual Time
Civil Twilight
Nautical Twilight
Astronomical Twilight
ירח
Length Of Visible Light
אורך היום
Tomorrow will be .
, % of the Moon is Illuminated

Today's Extremes

Country Highs Country Lows

Community

WunderPhotos

Upload Photos

1,773,125 photos uploaded!

WunderBlogs® & News

Nearby

איכות האוויר

  איכות האוויר אינדקס איכות האוויר חומר מזהם
Not available.

עומק שלג

Station Depth Elevation

Earthquake Activity

עיר Distance Mag. Time & Date
Minimum magnitude displayed is 2.5.

Coastal Water Temperatures

מקום טמפרטורה

Nearby Weather Stations